»·PEaware :: N623JB KSNA-KSNA

N623JB :: KSNA-KSNA

FLIGHT INFORMATION

Flight Status: Arrived
Operator: Privately registered:
United States
More flights under this callsign
Pilot: Jonathan B. (32222)
Aircraft: CIRRUS SR-22
(SR22)
More flights by this aircraft type
Origin: KSNA John Wayne-Orange Co
United States
Destination: KSNA John Wayne-Orange Co
United States
More flights between these airports :: More routes between these airports
Route: +SLI
File this flight plan on PilotEdge
Remarks:
Altitude:
(Current/Filed)
4,000ft
Speed:
(Current/Filed)
130kts
Departed: 15-Nov-20 12:26 PM
Arrived: 15-Nov-20 12:51 PM
Distance/Time
Traveled:
6774nm/0:25
Distance/Time
To Go:
Arrived

Flight Plot

Page will automatically refresh every two minutes.


Map Options




Map Legend


Flown Route
Filed Route
Departure Airport
Arrival Airport
Navaid (VOR, NDB)
Fix

Horizontal Profiles

Position Reports

Time Latitude Longitude Heading Altitude Ground
Speed
15-Nov-20 12:15 33.676492 -117.870946 183 52ft 0kts
15-Nov-20 12:16 33.676492 -117.870946 183 52ft 0kts
15-Nov-20 12:17 33.676492 -117.870946 183 52ft 0kts
15-Nov-20 12:18 33.676492 -117.870946 183 52ft 0kts
15-Nov-20 12:19 33.676492 -117.870946 183 52ft 0kts
15-Nov-20 12:20 33.676492 -117.870946 183 52ft 0kts
15-Nov-20 12:21 33.676492 -117.870946 183 52ft 0kts
15-Nov-20 12:22 33.676492 -117.870946 183 52ft 0kts
15-Nov-20 12:23 33.678246 -117.868731 30 50ft 14kts
15-Nov-20 12:24 33.681211 -117.866445 117 43ft 0kts
15-Nov-20 12:25 33.681211 -117.866445 117 43ft 0kts
15-Nov-20 12:26 33.675204 -117.869154 207 79ft 94kts
15-Nov-20 12:27 33.662055 -117.897102 256 1533ft 104kts
15-Nov-20 12:27 33.652935 -117.932474 248 1960ft 146kts
15-Nov-20 12:29 33.633898 -117.983559 243 2902ft 143kts
15-Nov-20 12:29 33.647591 -118.009227 7 2996ft 155kts
15-Nov-20 12:31 33.695052 -117.990802 17 2995ft 151kts
15-Nov-20 12:31 33.728593 -117.979281 14 2999ft 150kts
15-Nov-20 12:32 33.768966 -117.967232 13 2999ft 147kts
15-Nov-20 12:33 33.808453 -117.956022 12 2999ft 143kts
15-Nov-20 12:34 33.842848 -117.933311 35 3000ft 142kts
15-Nov-20 12:36 33.880850 -117.901923 33 3000ft 142kts
15-Nov-20 12:36 33.908206 -117.880351 33 3000ft 142kts
15-Nov-20 12:37 33.940937 -117.854803 32 3000ft 138kts
15-Nov-20 12:38 33.952626 -117.816866 99 3000ft 129kts
15-Nov-20 12:39 33.948441 -117.775613 95 3001ft 126kts
15-Nov-20 12:40 33.923839 -117.761199 188 3004ft 121kts
15-Nov-20 12:41 33.889892 -117.765750 185 2998ft 122kts
15-Nov-20 12:42 33.855889 -117.768031 183 2998ft 122kts
15-Nov-20 12:43 33.823253 -117.775386 216 2907ft 127kts
15-Nov-20 12:44 33.793847 -117.794125 207 2286ft 115kts
15-Nov-20 12:45 33.766227 -117.811487 208 2003ft 112kts
15-Nov-20 12:46 33.742822 -117.826317 208 1369ft 91kts
15-Nov-20 12:47 33.720982 -117.840156 208 877ft 85kts
15-Nov-20 12:48 33.698702 -117.854263 208 524ft 87kts
15-Nov-20 12:49 33.679869 -117.866194 209 48ft 58kts
15-Nov-20 12:50 33.678110 -117.868447 282 51ft 0kts
15-Nov-20 12:51 33.678110 -117.868447 282 51ft 0kts
15-Nov-20 12:52 33.678110 -117.868447 282 51ft 0kts
15-Nov-20 12:53 33.678110 -117.868447 282 51ft 0kts
15-Nov-20 12:54 33.676412 -117.869895 209 54ft 13kts
15-Nov-20 12:55 33.676162 -117.870969 185 52ft 0kts
15-Nov-20 12:56 33.676162 -117.870969 185 52ft 0kts
15-Nov-20 12:57 33.676162 -117.870969 185 52ft 0kts
15-Nov-20 12:58 33.676162 -117.870969 185 52ft 0kts
15-Nov-20 12:59 33.676162 -117.870969 185 52ft 0kts
15-Nov-20 13:00 0.000408 0.013975 0 3ft 0kts
15-Nov-20 13:01 0.000408 0.013975 0 3ft 0kts
15-Nov-20 13:02 0.000408 0.013975 0 3ft 0kts
15-Nov-20 13:03 0.000408 0.013975 0 3ft 0kts
15-Nov-20 13:04 0.000408 0.013975 0 3ft 0kts

Navigation Log

Ident Type
Flight plan parsing failed, navigation log unavailable